Stans, Switzerland
Current Conditions -  °F | °C
As of 12:50 PM on Thursday 30 Oct 2014 (Local Time) from LSZC Reporting Station
Broken Clouds Broken Clouds  
Wind Chill: 57°   Ceiling: 13000
Heat Index: 57°   Visibility: 6mi
Dew Point: 45°   Wind: 3mph
Humidity: 63%   Direction: NA
Pressure: 30.27"   Gusts: NA
Location:  46.96°N, 8.35°E
Report Text: LSZC 301150Z AUTO VRB03KT 9999 BKN130 14/07 Q1025
Loading
Personal Weather Stations






























Interactive Weather Map
Tropical Storm Tracking
New forecast layout! Learn more

10-Day Weather Forecast

Advertisements
Track Severe Weather on mobile